createdAt,value
2022-12-28T00:00:26.857Z,101421.91
2022-12-28T00:03:32.676Z,101420.50
2022-12-28T00:06:37.269Z,101417.88
2022-12-28T00:09:41.743Z,101404.28
2022-12-28T00:12:46.277Z,101425.53
2022-12-28T00:15:50.769Z,101414.63
2022-12-28T00:18:56.499Z,101421.63
2022-12-28T00:22:00.597Z,101440.56
2022-12-28T00:25:05.347Z,101432.16
2022-12-28T00:28:09.784Z,101419.84
2022-12-28T00:31:15.239Z,101429.03
2022-12-28T00:34:19.723Z,101431.19
2022-12-28T00:37:24.415Z,101399.16
2022-12-28T00:40:29.166Z,101430.06
2022-12-28T00:43:34.248Z,101425.72
2022-12-28T00:46:38.841Z,101416.41
2022-12-28T00:49:43.320Z,101433.16
2022-12-28T00:52:47.722Z,101427.41
2022-12-28T00:55:52.333Z,101433.16
2022-12-28T00:59:00.981Z,101439.47
2022-12-28T01:02:05.568Z,101450.88
2022-12-28T01:05:10.745Z,101411.72
2022-12-28T01:08:15.373Z,101438.13
2022-12-28T01:11:37.835Z,101443.09
2022-12-28T01:14:42.489Z,101431.03
2022-12-28T01:17:46.884Z,101409.13
2022-12-28T01:20:51.517Z,101432.75
2022-12-28T01:23:58.848Z,101420.91
2022-12-28T01:27:03.221Z,101417.44
2022-12-28T01:30:09.198Z,101422.25
2022-12-28T01:33:15.261Z,101411.03
2022-12-28T01:36:25.427Z,101423.34
2022-12-28T01:39:30.461Z,101416.13
2022-12-28T01:42:34.940Z,101408.94
2022-12-28T01:45:40.113Z,101405.97
2022-12-28T01:49:03.506Z,101364.13
2022-12-28T01:52:20.652Z,101399.81
2022-12-28T01:55:32.651Z,101398.34
2022-12-28T01:58:37.781Z,101382.84
2022-12-28T02:01:42.383Z,101365.41
2022-12-28T02:04:48.178Z,101387.00
2022-12-28T02:08:15.686Z,101381.13
2022-12-28T02:11:21.289Z,101375.16
2022-12-28T02:14:26.037Z,101377.56
2022-12-28T02:17:30.552Z,101377.53
2022-12-28T02:20:52.927Z,101370.69
2022-12-28T02:24:23.282Z,101373.97
2022-12-28T02:27:53.990Z,101371.59
2022-12-28T02:31:14.052Z,101356.47
2022-12-28T02:34:33.986Z,101358.72
2022-12-28T02:37:54.163Z,101350.63
2022-12-28T02:41:10.580Z,101357.72
2022-12-28T02:44:35.843Z,101341.97
2022-12-28T02:48:02.880Z,101336.28
2022-12-28T02:51:45.287Z,101332.72
2022-12-28T02:55:22.550Z,101337.47
2022-12-28T02:58:30.588Z,101334.47
2022-12-28T03:01:57.952Z,101335.13
2022-12-28T03:05:43.121Z,101318.19
2022-12-28T03:09:27.636Z,101325.59
2022-12-28T03:12:44.840Z,101310.88
2022-12-28T03:15:50.743Z,101321.66
2022-12-28T03:19:25.062Z,101318.44
2022-12-28T03:22:50.964Z,101313.00
2022-12-28T03:26:15.900Z,101296.47
2022-12-28T03:29:45.773Z,101305.22
2022-12-28T03:32:51.954Z,101306.13
2022-12-28T03:36:05.212Z,101289.84
2022-12-28T03:39:34.340Z,101291.97
2022-12-28T03:43:11.074Z,101291.25
2022-12-28T03:46:24.267Z,101283.44
2022-12-28T03:49:29.930Z,101291.75
2022-12-28T03:52:35.070Z,101285.06
2022-12-28T03:55:41.402Z,101270.88
2022-12-28T03:58:46.500Z,101283.81
2022-12-28T04:01:52.790Z,101269.94
2022-12-28T04:04:57.506Z,101277.91
2022-12-28T04:08:02.818Z,101258.38
2022-12-28T04:11:07.612Z,101277.88
2022-12-28T04:14:12.177Z,101265.13
2022-12-28T04:17:20.494Z,101269.13
2022-12-28T04:20:25.345Z,101274.38
2022-12-28T04:23:31.429Z,101285.28
2022-12-28T04:27:02.839Z,101279.53
2022-12-28T04:30:09.796Z,101275.75
2022-12-28T04:33:14.110Z,101245.13
2022-12-28T04:36:22.022Z,101263.59
2022-12-28T04:39:27.700Z,101281.19
2022-12-28T04:42:52.167Z,101271.19
2022-12-28T04:46:02.649Z,101260.56
2022-12-28T04:49:06.888Z,101263.75
2022-12-28T04:52:11.293Z,101259.13
2022-12-28T04:55:32.945Z,101259.69
2022-12-28T04:58:38.564Z,101256.78
2022-12-28T05:01:43.022Z,101259.38
2022-12-28T05:04:47.336Z,101256.75
2022-12-28T05:07:51.744Z,101254.09
2022-12-28T05:10:56.158Z,101245.78
2022-12-28T05:14:00.563Z,101252.41
2022-12-28T05:17:04.992Z,101185.16
2022-12-28T05:20:09.986Z,101263.75
2022-12-28T05:23:14.361Z,101239.97
2022-12-28T05:26:21.266Z,101251.75
2022-12-28T05:29:25.658Z,101250.50
2022-12-28T05:32:30.254Z,101239.19
2022-12-28T05:35:36.590Z,101244.53
2022-12-28T05:38:41.668Z,101249.88
2022-12-28T05:41:46.001Z,101246.00
2022-12-28T05:44:50.455Z,101245.91
2022-12-28T05:47:56.396Z,101251.97
2022-12-28T05:51:21.869Z,101243.06
2022-12-28T05:54:26.345Z,101248.78
2022-12-28T05:57:30.757Z,101254.78
2022-12-28T06:00:35.291Z,101232.25
2022-12-28T06:03:40.535Z,101259.47
2022-12-28T06:06:45.975Z,101250.34
2022-12-28T06:09:50.602Z,101252.91
2022-12-28T06:12:55.155Z,101266.91
2022-12-28T06:15:59.836Z,101264.06
2022-12-28T06:19:12.791Z,101256.09
2022-12-28T06:22:17.269Z,101265.19
2022-12-28T06:25:21.747Z,101263.41
2022-12-28T06:28:26.268Z,101255.38
2022-12-28T06:31:33.520Z,101275.94
2022-12-28T06:34:38.187Z,101265.84
2022-12-28T06:37:42.709Z,101259.91
2022-12-28T06:41:12.159Z,101272.00
2022-12-28T06:44:14.615Z,101267.63
2022-12-28T06:47:19.082Z,101262.00
2022-12-28T06:50:23.726Z,101280.63
2022-12-28T06:53:34.324Z,101283.59
2022-12-28T06:56:39.642Z,101286.84
2022-12-28T06:59:44.167Z,101283.88
2022-12-28T07:02:48.953Z,101291.31
2022-12-28T07:05:53.476Z,101275.75
2022-12-28T07:09:06.751Z,101287.66
2022-12-28T07:12:11.428Z,101246.03
2022-12-28T07:15:16.039Z,101252.41
2022-12-28T07:18:20.574Z,101302.09
2022-12-28T07:21:30.647Z,101298.09
2022-12-28T07:24:34.955Z,101305.22
2022-12-28T07:27:39.422Z,101286.34
2022-12-28T07:30:43.980Z,101305.97
2022-12-28T07:33:49.616Z,101300.38
2022-12-28T07:36:54.092Z,101278.50
2022-12-28T07:39:58.803Z,101308.38
2022-12-28T07:43:03.219Z,101312.72
2022-12-28T07:46:11.483Z,101313.25
2022-12-28T07:49:15.817Z,101308.69
2022-12-28T07:52:20.666Z,101305.91
2022-12-28T07:55:25.718Z,101306.56
2022-12-28T07:58:30.036Z,101301.06
2022-12-28T08:01:37.060Z,101323.16
2022-12-28T08:04:41.835Z,101319.81
2022-12-28T08:07:46.589Z,101323.31
2022-12-28T08:10:51.103Z,101300.78
2022-12-28T08:13:57.852Z,101319.88
2022-12-28T08:17:02.169Z,101306.56
2022-12-28T08:20:07.113Z,101323.53
2022-12-28T08:23:11.665Z,101319.75
2022-12-28T08:26:24.554Z,101320.44
2022-12-28T08:29:29.136Z,101297.44
2022-12-28T08:32:33.485Z,101316.75
2022-12-28T08:35:37.901Z,101299.44
2022-12-28T08:38:43.970Z,101309.03
2022-12-28T08:41:48.337Z,101320.34
2022-12-28T08:44:52.974Z,101311.69
2022-12-28T08:47:57.459Z,101327.56
2022-12-28T08:51:11.843Z,101320.75
2022-12-28T08:54:16.416Z,101330.59
2022-12-28T08:57:20.801Z,101312.81
2022-12-28T09:00:25.378Z,101259.84
2022-12-28T09:03:30.095Z,101325.09
2022-12-28T09:06:37.722Z,101329.31
2022-12-28T09:09:42.151Z,101320.31
2022-12-28T09:12:46.445Z,101342.66
2022-12-28T09:16:12.660Z,101337.31
2022-12-28T09:19:17.675Z,101338.09
2022-12-28T09:22:22.993Z,101318.50
2022-12-28T09:25:27.497Z,101343.16
2022-12-28T09:28:31.741Z,101329.06
2022-12-28T09:31:38.071Z,101338.34
2022-12-28T09:34:42.628Z,101330.25
2022-12-28T09:37:47.165Z,101342.63
2022-12-28T09:40:51.628Z,101325.66
2022-12-28T09:44:18.720Z,101333.31
2022-12-28T09:47:39.633Z,101320.63
2022-12-28T09:50:45.386Z,101325.31
2022-12-28T09:53:50.205Z,101343.72
2022-12-28T09:56:55.444Z,101334.13
2022-12-28T10:00:00.000Z,101342.72
2022-12-28T10:03:11.196Z,101331.56
2022-12-28T10:06:19.369Z,101320.41
2022-12-28T10:09:30.781Z,101319.13
2022-12-28T10:12:35.683Z,101327.91
2022-12-28T10:15:40.071Z,101325.75
2022-12-28T10:18:46.779Z,101305.13
2022-12-28T10:22:05.280Z,101342.16
2022-12-28T10:25:19.195Z,101320.41
2022-12-28T10:28:28.046Z,101334.41
2022-12-28T10:31:37.159Z,101340.25
2022-12-28T10:34:55.745Z,101323.94
2022-12-28T10:38:23.475Z,101324.94
2022-12-28T10:41:38.114Z,101323.41
2022-12-28T10:44:42.606Z,101334.03
2022-12-28T10:47:53.021Z,101325.34
2022-12-28T10:51:13.616Z,101338.31
2022-12-28T10:54:27.787Z,101335.13
2022-12-28T10:57:38.001Z,101323.59
2022-12-28T11:00:48.525Z,101279.38
2022-12-28T11:03:56.986Z,101337.19
2022-12-28T11:07:03.461Z,101327.03
2022-12-28T11:10:27.065Z,101333.44
2022-12-28T11:13:31.536Z,101331.94
2022-12-28T11:16:38.881Z,101322.28
2022-12-28T11:19:43.776Z,101315.06
2022-12-28T11:22:48.887Z,101327.13
2022-12-28T11:25:54.026Z,101330.78
2022-12-28T11:28:58.805Z,101320.06
2022-12-28T11:32:05.907Z,101323.19
2022-12-28T11:35:21.162Z,101308.00
2022-12-28T11:38:47.058Z,101317.28
2022-12-28T11:42:27.660Z,101331.81
2022-12-28T11:45:18.189Z,101328.41
2022-12-28T11:48:44.827Z,101332.50
2022-12-28T11:51:49.410Z,101314.91
2022-12-28T11:54:57.047Z,101318.53
2022-12-28T11:58:30.274Z,101315.28
2022-12-28T12:01:37.600Z,101331.16
2022-12-28T12:04:46.959Z,101315.88
2022-12-28T12:07:51.513Z,101316.94
2022-12-28T12:11:23.511Z,101315.72
2022-12-28T12:14:41.675Z,101244.72
2022-12-28T12:18:06.769Z,101314.13
2022-12-28T12:21:30.482Z,101312.88
2022-12-28T12:24:43.930Z,101311.16
2022-12-28T12:28:02.297Z,101301.69
2022-12-28T12:31:13.204Z,101301.72
2022-12-28T12:34:46.798Z,101303.28
2022-12-28T12:38:12.363Z,101290.78
2022-12-28T12:41:33.380Z,101304.59
2022-12-28T12:44:46.396Z,101295.09
2022-12-28T12:48:05.698Z,101296.09
2022-12-28T12:51:31.914Z,101292.88
2022-12-28T12:54:45.371Z,101289.91
2022-12-28T12:58:01.754Z,101293.34
2022-12-28T13:01:27.986Z,101289.34
2022-12-28T13:04:36.629Z,101288.53
2022-12-28T13:07:41.409Z,101294.19
2022-12-28T13:10:47.683Z,101290.31
2022-12-28T13:13:55.051Z,101286.19
2022-12-28T13:17:01.960Z,101285.25
2022-12-28T13:20:32.537Z,101296.25
2022-12-28T13:23:45.657Z,101282.25
2022-12-28T13:26:51.051Z,101291.44
2022-12-28T13:29:56.073Z,101288.53
2022-12-28T13:33:05.559Z,101239.50
2022-12-28T13:36:18.330Z,101286.75
2022-12-28T13:39:23.500Z,101287.66
2022-12-28T13:42:38.169Z,101284.84
2022-12-28T13:45:47.644Z,101268.28
2022-12-28T13:48:58.746Z,101272.47
2022-12-28T13:52:10.507Z,101270.97
2022-12-28T13:55:22.361Z,101278.38
2022-12-28T13:58:29.877Z,101288.81
2022-12-28T14:01:41.321Z,101204.47
2022-12-28T14:04:54.320Z,101279.19
2022-12-28T14:08:00.757Z,101270.78
2022-12-28T14:11:06.462Z,101277.81
2022-12-28T14:14:12.470Z,101287.34
2022-12-28T14:17:18.124Z,101282.88
2022-12-28T14:20:22.829Z,101282.28
2022-12-28T14:23:31.279Z,101267.97
2022-12-28T14:26:37.259Z,101243.44
2022-12-28T14:29:41.619Z,101266.09
2022-12-28T14:32:46.217Z,101264.31
2022-12-28T14:35:55.860Z,101273.16
2022-12-28T14:39:05.032Z,101212.88
2022-12-28T14:42:22.320Z,101270.28
2022-12-28T14:46:07.406Z,101270.56
2022-12-28T14:49:30.588Z,101278.94
2022-12-28T14:52:43.678Z,101269.25
2022-12-28T14:56:00.243Z,101278.78
2022-12-28T14:59:04.823Z,101274.78
2022-12-28T15:02:35.222Z,101276.13
2022-12-28T15:05:43.601Z,101143.41
2022-12-28T15:08:52.979Z,101284.16
2022-12-28T15:12:15.130Z,101277.19
2022-12-28T15:15:19.567Z,101273.84
2022-12-28T15:18:24.419Z,101268.00
2022-12-28T15:21:28.800Z,101260.78
2022-12-28T15:24:34.232Z,101250.50
2022-12-28T15:27:40.206Z,101272.72
2022-12-28T15:30:45.640Z,101275.09
2022-12-28T15:33:49.755Z,101272.13
2022-12-28T15:36:54.102Z,101218.72
2022-12-28T15:39:58.555Z,101255.63
2022-12-28T15:43:02.985Z,101272.69
2022-12-28T15:46:07.338Z,101274.19
2022-12-28T15:49:14.100Z,101269.56
2022-12-28T15:52:18.606Z,101270.22
2022-12-28T15:55:23.117Z,101262.56
2022-12-28T15:58:28.332Z,101274.47
2022-12-28T16:01:34.347Z,101282.41
2022-12-28T16:04:38.805Z,101267.72
2022-12-28T16:07:43.411Z,101257.47
2022-12-28T16:10:48.364Z,101275.06
2022-12-28T16:14:01.701Z,101268.38
2022-12-28T16:17:06.177Z,101271.31
2022-12-28T16:20:12.466Z,101273.44
2022-12-28T16:23:16.724Z,101289.69
2022-12-28T16:26:21.671Z,101282.03
2022-12-28T16:29:26.241Z,101293.25
2022-12-28T16:32:31.010Z,101275.50
2022-12-28T16:35:35.799Z,101275.13
2022-12-28T16:38:40.286Z,101283.06
2022-12-28T16:41:45.211Z,101289.44
2022-12-28T16:44:49.569Z,101285.59
2022-12-28T16:47:54.113Z,101292.25
2022-12-28T16:51:00.190Z,101298.63
2022-12-28T16:54:04.878Z,101297.16
2022-12-28T16:57:09.315Z,101292.69
2022-12-28T17:00:14.843Z,101310.78
2022-12-28T17:03:19.435Z,101302.53
2022-12-28T17:06:24.070Z,101323.47
2022-12-28T17:09:28.807Z,101299.75
2022-12-28T17:12:33.884Z,101325.34
2022-12-28T17:15:43.086Z,101337.22
2022-12-28T17:18:47.425Z,101327.84
2022-12-28T17:21:51.899Z,101329.94
2022-12-28T17:24:56.321Z,101332.31
2022-12-28T17:28:01.164Z,101333.59
2022-12-28T17:31:11.993Z,101338.53
2022-12-28T17:34:16.537Z,101337.09
2022-12-28T17:37:20.777Z,101341.41
2022-12-28T17:40:25.370Z,101341.97
2022-12-28T17:43:29.835Z,101337.94
2022-12-28T17:46:41.497Z,101326.03
2022-12-28T17:49:46.139Z,101340.09
2022-12-28T17:52:50.788Z,101328.69
2022-12-28T17:55:55.425Z,101350.44
2022-12-28T17:59:00.721Z,101357.19
2022-12-28T18:02:09.604Z,101358.13
2022-12-28T18:05:14.473Z,101346.22
2022-12-28T18:08:20.878Z,101349.69
2022-12-28T18:11:26.000Z,101350.72
2022-12-28T18:14:30.616Z,101353.41
2022-12-28T18:17:35.367Z,101344.66
2022-12-28T18:20:39.851Z,101345.19
2022-12-28T18:23:53.792Z,101363.75
2022-12-28T18:26:58.440Z,101355.97
2022-12-28T18:30:03.032Z,101353.97
2022-12-28T18:33:07.719Z,101355.47
2022-12-28T18:36:17.304Z,101366.41
2022-12-28T18:39:22.189Z,101351.09
2022-12-28T18:42:26.945Z,101361.50
2022-12-28T18:45:31.450Z,101358.47
2022-12-28T18:48:42.014Z,101364.50
2022-12-28T18:51:46.503Z,101348.78
2022-12-28T18:54:50.850Z,101365.16
2022-12-28T18:57:55.424Z,101344.53
2022-12-28T19:01:05.506Z,101371.91
2022-12-28T19:04:10.867Z,101375.41
2022-12-28T19:07:16.903Z,101379.22
2022-12-28T19:10:22.078Z,101370.38
2022-12-28T19:13:26.613Z,101363.22
2022-12-28T19:16:32.209Z,101367.22
2022-12-28T19:19:36.980Z,101372.16
2022-12-28T19:22:41.368Z,101378.53
2022-12-28T19:25:46.055Z,101371.47
2022-12-28T19:28:50.962Z,101369.34
2022-12-28T19:31:55.898Z,101363.41
2022-12-28T19:35:00.368Z,101355.09
2022-12-28T19:38:04.768Z,101300.38
2022-12-28T19:41:12.403Z,101381.84
2022-12-28T19:44:20.974Z,101381.56
2022-12-28T19:47:25.499Z,101364.97
2022-12-28T19:50:30.346Z,101379.72
2022-12-28T19:53:34.862Z,101388.97
2022-12-28T19:56:39.378Z,101326.09
2022-12-28T19:59:43.767Z,101386.47
2022-12-28T20:02:48.377Z,101381.50
2022-12-28T20:05:52.982Z,101367.88
2022-12-28T20:09:00.234Z,101388.03
2022-12-28T20:12:04.676Z,101377.31
2022-12-28T20:15:09.582Z,101384.44
2022-12-28T20:18:14.010Z,101387.13
2022-12-28T20:21:20.722Z,101384.19
2022-12-28T20:24:25.915Z,101389.84
2022-12-28T20:27:31.376Z,101379.09
2022-12-28T20:30:35.548Z,101394.38
2022-12-28T20:33:40.391Z,101381.06
2022-12-28T20:36:45.007Z,101366.38
2022-12-28T20:39:49.361Z,101387.50
2022-12-28T20:43:12.140Z,101378.13
2022-12-28T20:46:16.678Z,101385.84
2022-12-28T20:49:21.668Z,101382.88
2022-12-28T20:52:26.310Z,101407.25
2022-12-28T20:55:30.895Z,101395.78
2022-12-28T20:58:37.509Z,101412.09
2022-12-28T21:01:42.970Z,101420.47
2022-12-28T21:04:47.595Z,101419.41
2022-12-28T21:07:52.219Z,101408.28
2022-12-28T21:10:56.847Z,101414.88
2022-12-28T21:14:02.057Z,101422.19
2022-12-28T21:17:06.429Z,101405.91
2022-12-28T21:20:12.007Z,101414.00
2022-12-28T21:23:17.051Z,101421.03
2022-12-28T21:26:22.771Z,101412.94
2022-12-28T21:29:27.696Z,101425.66
2022-12-28T21:32:31.982Z,101425.25
2022-12-28T21:35:36.548Z,101416.75
2022-12-28T21:38:43.089Z,101429.78
2022-12-28T21:41:50.768Z,101422.03
2022-12-28T21:44:55.325Z,101422.22
2022-12-28T21:47:59.644Z,101426.22
2022-12-28T21:51:31.936Z,101433.69
2022-12-28T21:54:36.409Z,101425.69
2022-12-28T21:57:41.038Z,101430.41
2022-12-28T22:01:04.229Z,101423.97
2022-12-28T22:04:30.382Z,101425.34
2022-12-28T22:07:36.858Z,101439.66
2022-12-28T22:10:59.945Z,101454.47
2022-12-28T22:14:06.099Z,101445.63
2022-12-28T22:17:14.202Z,101448.25
2022-12-28T22:20:19.180Z,101454.25
2022-12-28T22:23:27.484Z,101448.53
2022-12-28T22:26:35.546Z,101460.31
2022-12-28T22:29:39.729Z,101433.91
2022-12-28T22:32:44.027Z,101437.16
2022-12-28T22:35:48.536Z,101469.34
2022-12-28T22:38:55.208Z,101468.81
2022-12-28T22:41:59.703Z,101473.78
2022-12-28T22:45:04.781Z,101486.34
2022-12-28T22:48:09.214Z,101484.69
2022-12-28T22:51:15.740Z,101485.31
2022-12-28T22:54:19.888Z,101490.75
2022-12-28T22:57:24.610Z,101484.66
2022-12-28T23:00:29.212Z,101482.38
2022-12-28T23:03:33.633Z,101498.19
2022-12-28T23:06:38.222Z,101497.38
2022-12-28T23:09:42.633Z,101485.75
2022-12-28T23:12:47.116Z,101498.53
2022-12-28T23:16:03.554Z,101477.56
2022-12-28T23:19:27.581Z,101474.66
2022-12-28T23:22:54.153Z,101506.50
2022-12-28T23:26:20.246Z,101512.00
2022-12-28T23:29:30.415Z,101501.63
2022-12-28T23:32:35.104Z,101486.41
2022-12-28T23:35:39.685Z,101494.91
2022-12-28T23:38:44.152Z,101516.97
2022-12-28T23:41:51.694Z,101526.28
2022-12-28T23:44:56.564Z,101524.16
2022-12-28T23:48:01.001Z,101520.56
2022-12-28T23:51:12.065Z,101514.28
2022-12-28T23:54:18.394Z,101532.56
2022-12-28T23:57:23.334Z,101531.47
